sensor_id;sensor_type;location;lat;lon;timestamp;P1;durP1;ratioP1;P2;durP2;ratioP2
37655;SDS011;23498;50.958;3.124;2023-11-21T00:01:04;22.35;;;11.27;;
37655;SDS011;23498;50.958;3.124;2023-11-21T00:03:30;22.00;;;11.30;;
37655;SDS011;23498;50.958;3.124;2023-11-21T00:06:02;27.33;;;12.10;;
37655;SDS011;23498;50.958;3.124;2023-11-21T00:08:29;24.02;;;11.60;;
37655;SDS011;23498;50.958;3.124;2023-11-21T00:10:56;25.60;;;12.40;;
37655;SDS011;23498;50.958;3.124;2023-11-21T00:13:22;26.35;;;11.75;;
37655;SDS011;23498;50.958;3.124;2023-11-21T00:15:52;21.98;;;12.63;;
37655;SDS011;23498;50.958;3.124;2023-11-21T00:18:21;29.10;;;11.95;;
37655;SDS011;23498;50.958;3.124;2023-11-21T00:20:47;27.05;;;11.30;;
37655;SDS011;23498;50.958;3.124;2023-11-21T00:23:16;23.70;;;11.63;;
37655;SDS011;23498;50.958;3.124;2023-11-21T00:25:43;23.67;;;11.27;;
37655;SDS011;23498;50.958;3.124;2023-11-21T00:28:12;23.75;;;11.88;;
37655;SDS011;23498;50.958;3.124;2023-11-21T00:30:39;20.75;;;11.10;;
37655;SDS011;23498;50.958;3.124;2023-11-21T00:33:05;25.92;;;12.05;;
37655;SDS011;23498;50.958;3.124;2023-11-21T00:35:37;25.02;;;12.15;;
37655;SDS011;23498;50.958;3.124;2023-11-21T00:38:08;27.10;;;11.85;;
37655;SDS011;23498;50.958;3.124;2023-11-21T00:40:37;27.25;;;14.15;;
37655;SDS011;23498;50.958;3.124;2023-11-21T00:43:03;28.48;;;12.43;;
37655;SDS011;23498;50.958;3.124;2023-11-21T00:45:30;22.83;;;12.07;;
37655;SDS011;23498;50.958;3.124;2023-11-21T00:47:58;27.10;;;11.63;;
37655;SDS011;23498;50.958;3.124;2023-11-21T00:50:33;24.55;;;11.82;;
37655;SDS011;23498;50.958;3.124;2023-11-21T00:52:59;30.50;;;12.35;;
37655;SDS011;23498;50.958;3.124;2023-11-21T00:55:30;26.77;;;11.05;;
37655;SDS011;23498;50.958;3.124;2023-11-21T00:57:56;27.15;;;10.98;;
37655;SDS011;23498;50.958;3.124;2023-11-21T01:00:25;26.80;;;10.50;;
37655;SDS011;23498;50.958;3.124;2023-11-21T01:02:59;23.48;;;10.73;;
37655;SDS011;23498;50.958;3.124;2023-11-21T01:05:34;25.90;;;10.55;;
37655;SDS011;23498;50.958;3.124;2023-11-21T01:08:00;26.38;;;10.15;;
37655;SDS011;23498;50.958;3.124;2023-11-21T01:10:42;25.45;;;10.10;;
37655;SDS011;23498;50.958;3.124;2023-11-21T01:13:11;27.33;;;11.38;;
37655;SDS011;23498;50.958;3.124;2023-11-21T01:15:38;22.35;;;9.45;;
37655;SDS011;23498;50.958;3.124;2023-11-21T01:18:04;24.30;;;9.57;;
37655;SDS011;23498;50.958;3.124;2023-11-21T01:20:38;25.85;;;9.85;;
37655;SDS011;23498;50.958;3.124;2023-11-21T01:23:07;26.63;;;10.05;;
37655;SDS011;23498;50.958;3.124;2023-11-21T01:25:34;24.42;;;10.18;;
37655;SDS011;23498;50.958;3.124;2023-11-21T01:28:15;29.90;;;10.23;;
37655;SDS011;23498;50.958;3.124;2023-11-21T01:30:41;30.52;;;10.13;;
37655;SDS011;23498;50.958;3.124;2023-11-21T01:33:10;24.02;;;9.68;;
37655;SDS011;23498;50.958;3.124;2023-11-21T01:35:39;26.90;;;9.25;;
37655;SDS011;23498;50.958;3.124;2023-11-21T01:38:06;20.52;;;10.18;;
37655;SDS011;23498;50.958;3.124;2023-11-21T01:40:33;21.27;;;9.52;;
37655;SDS011;23498;50.958;3.124;2023-11-21T01:43:00;27.92;;;10.52;;
37655;SDS011;23498;50.958;3.124;2023-11-21T01:45:38;21.95;;;9.50;;
37655;SDS011;23498;50.958;3.124;2023-11-21T01:48:07;23.65;;;9.93;;
37655;SDS011;23498;50.958;3.124;2023-11-21T01:50:37;22.08;;;9.25;;
37655;SDS011;23498;50.958;3.124;2023-11-21T01:53:03;20.15;;;9.02;;
37655;SDS011;23498;50.958;3.124;2023-11-21T01:55:32;21.33;;;9.13;;
37655;SDS011;23498;50.958;3.124;2023-11-21T01:58:00;21.83;;;9.43;;
37655;SDS011;23498;50.958;3.124;2023-11-21T02:00:28;24.77;;;9.27;;
37655;SDS011;23498;50.958;3.124;2023-11-21T02:02:57;23.38;;;9.13;;
37655;SDS011;23498;50.958;3.124;2023-11-21T02:05:27;21.20;;;9.52;;
37655;SDS011;23498;50.958;3.124;2023-11-21T02:07:55;17.08;;;8.63;;
37655;SDS011;23498;50.958;3.124;2023-11-21T02:10:23;22.63;;;9.25;;
37655;SDS011;23498;50.958;3.124;2023-11-21T02:12:50;23.98;;;10.27;;
37655;SDS011;23498;50.958;3.124;2023-11-21T02:15:16;26.15;;;9.95;;
37655;SDS011;23498;50.958;3.124;2023-11-21T02:17:57;22.95;;;10.18;;
37655;SDS011;23498;50.958;3.124;2023-11-21T02:20:29;20.63;;;10.15;;
37655;SDS011;23498;50.958;3.124;2023-11-21T02:22:59;22.23;;;10.20;;
37655;SDS011;23498;50.958;3.124;2023-11-21T02:27:54;20.35;;;10.07;;
37655;SDS011;23498;50.958;3.124;2023-11-21T02:30:21;22.13;;;9.98;;
37655;SDS011;23498;50.958;3.124;2023-11-21T02:32:48;27.10;;;11.95;;
37655;SDS011;23498;50.958;3.124;2023-11-21T02:35:14;28.17;;;11.43;;
37655;SDS011;23498;50.958;3.124;2023-11-21T02:37:47;27.95;;;12.20;;
37655;SDS011;23498;50.958;3.124;2023-11-21T02:40:14;32.58;;;12.88;;
37655;SDS011;23498;50.958;3.124;2023-11-21T02:42:43;29.02;;;12.48;;
37655;SDS011;23498;50.958;3.124;2023-11-21T02:45:15;29.77;;;13.43;;
37655;SDS011;23498;50.958;3.124;2023-11-21T02:47:46;32.53;;;14.20;;
37655;SDS011;23498;50.958;3.124;2023-11-21T02:50:31;30.20;;;13.57;;
37655;SDS011;23498;50.958;3.124;2023-11-21T02:53:13;38.25;;;15.23;;
37655;SDS011;23498;50.958;3.124;2023-11-21T02:55:41;35.97;;;15.25;;
37655;SDS011;23498;50.958;3.124;2023-11-21T02:58:10;34.15;;;14.93;;
37655;SDS011;23498;50.958;3.124;2023-11-21T03:00:43;33.97;;;15.30;;
37655;SDS011;23498;50.958;3.124;2023-11-21T03:03:18;32.50;;;15.20;;
37655;SDS011;23498;50.958;3.124;2023-11-21T03:05:49;35.17;;;14.30;;
37655;SDS011;23498;50.958;3.124;2023-11-21T03:08:16;34.35;;;14.95;;
37655;SDS011;23498;50.958;3.124;2023-11-21T03:10:50;36.60;;;14.98;;
37655;SDS011;23498;50.958;3.124;2023-11-21T03:13:17;28.73;;;14.32;;
37655;SDS011;23498;50.958;3.124;2023-11-21T03:15:48;32.65;;;15.00;;
37655;SDS011;23498;50.958;3.124;2023-11-21T03:18:17;36.25;;;15.15;;
37655;SDS011;23498;50.958;3.124;2023-11-21T03:20:50;32.05;;;13.80;;
37655;SDS011;23498;50.958;3.124;2023-11-21T03:23:17;30.05;;;14.05;;
37655;SDS011;23498;50.958;3.124;2023-11-21T03:25:46;30.05;;;14.27;;
37655;SDS011;23498;50.958;3.124;2023-11-21T03:28:17;31.35;;;14.25;;
37655;SDS011;23498;50.958;3.124;2023-11-21T03:30:47;35.88;;;15.85;;
37655;SDS011;23498;50.958;3.124;2023-11-21T03:33:36;31.65;;;15.27;;
37655;SDS011;23498;50.958;3.124;2023-11-21T03:36:04;35.95;;;15.32;;
37655;SDS011;23498;50.958;3.124;2023-11-21T03:38:33;35.25;;;15.15;;
37655;SDS011;23498;50.958;3.124;2023-11-21T03:40:59;28.58;;;14.18;;
37655;SDS011;23498;50.958;3.124;2023-11-21T03:43:26;32.30;;;14.77;;
37655;SDS011;23498;50.958;3.124;2023-11-21T03:45:52;32.55;;;13.95;;
37655;SDS011;23498;50.958;3.124;2023-11-21T03:48:18;30.80;;;15.18;;
37655;SDS011;23498;50.958;3.124;2023-11-21T03:50:45;26.42;;;13.25;;
37655;SDS011;23498;50.958;3.124;2023-11-21T03:53:17;27.67;;;12.95;;
37655;SDS011;23498;50.958;3.124;2023-11-21T03:55:46;20.42;;;11.38;;
37655;SDS011;23498;50.958;3.124;2023-11-21T03:58:14;22.15;;;11.57;;
37655;SDS011;23498;50.958;3.124;2023-11-21T04:00:40;25.88;;;11.68;;
37655;SDS011;23498;50.958;3.124;2023-11-21T04:03:08;24.13;;;11.63;;
37655;SDS011;23498;50.958;3.124;2023-11-21T04:05:34;20.98;;;10.90;;
37655;SDS011;23498;50.958;3.124;2023-11-21T04:08:03;20.08;;;11.20;;
37655;SDS011;23498;50.958;3.124;2023-11-21T04:10:30;21.17;;;11.20;;
37655;SDS011;23498;50.958;3.124;2023-11-21T04:12:56;18.60;;;11.18;;
37655;SDS011;23498;50.958;3.124;2023-11-21T04:15:22;18.27;;;10.65;;
37655;SDS011;23498;50.958;3.124;2023-11-21T04:17:50;19.45;;;11.13;;
37655;SDS011;23498;50.958;3.124;2023-11-21T04:20:19;18.95;;;11.10;;
37655;SDS011;23498;50.958;3.124;2023-11-21T04:22:45;16.77;;;9.52;;
37655;SDS011;23498;50.958;3.124;2023-11-21T04:25:11;17.30;;;10.15;;
37655;SDS011;23498;50.958;3.124;2023-11-21T04:27:40;19.50;;;10.85;;
37655;SDS011;23498;50.958;3.124;2023-11-21T04:30:11;18.37;;;10.43;;
37655;SDS011;23498;50.958;3.124;2023-11-21T04:32:37;14.50;;;8.82;;
37655;SDS011;23498;50.958;3.124;2023-11-21T04:35:09;18.27;;;10.10;;
37655;SDS011;23498;50.958;3.124;2023-11-21T04:37:35;16.00;;;8.85;;
37655;SDS011;23498;50.958;3.124;2023-11-21T04:40:02;16.17;;;8.70;;
37655;SDS011;23498;50.958;3.124;2023-11-21T04:42:33;12.57;;;7.75;;
37655;SDS011;23498;50.958;3.124;2023-11-21T04:44:59;12.90;;;8.20;;
37655;SDS011;23498;50.958;3.124;2023-11-21T04:50:31;13.47;;;7.50;;
37655;SDS011;23498;50.958;3.124;2023-11-21T04:52:57;11.75;;;7.32;;
37655;SDS011;23498;50.958;3.124;2023-11-21T04:55:23;15.80;;;7.50;;
37655;SDS011;23498;50.958;3.124;2023-11-21T04:57:49;12.05;;;7.05;;
37655;SDS011;23498;50.958;3.124;2023-11-21T05:00:15;13.32;;;7.20;;
37655;SDS011;23498;50.958;3.124;2023-11-21T05:02:41;11.70;;;6.28;;
37655;SDS011;23498;50.958;3.124;2023-11-21T05:05:09;10.85;;;6.88;;
37655;SDS011;23498;50.958;3.124;2023-11-21T05:07:35;12.73;;;6.45;;
37655;SDS011;23498;50.958;3.124;2023-11-21T05:10:04;11.45;;;6.47;;
37655;SDS011;23498;50.958;3.124;2023-11-21T05:12:35;11.30;;;6.20;;
37655;SDS011;23498;50.958;3.124;2023-11-21T05:15:07;12.65;;;6.03;;
37655;SDS011;23498;50.958;3.124;2023-11-21T05:17:39;13.73;;;6.60;;
37655;SDS011;23498;50.958;3.124;2023-11-21T05:20:08;14.18;;;6.85;;
37655;SDS011;23498;50.958;3.124;2023-11-21T05:22:35;14.77;;;7.03;;
37655;SDS011;23498;50.958;3.124;2023-11-21T05:25:12;15.88;;;6.90;;
37655;SDS011;23498;50.958;3.124;2023-11-21T05:27:43;15.43;;;7.45;;
37655;SDS011;23498;50.958;3.124;2023-11-21T05:30:10;14.57;;;7.43;;
37655;SDS011;23498;50.958;3.124;2023-11-21T05:32:38;18.75;;;8.23;;
37655;SDS011;23498;50.958;3.124;2023-11-21T05:35:07;15.27;;;7.50;;
37655;SDS011;23498;50.958;3.124;2023-11-21T05:37:43;17.05;;;8.00;;
37655;SDS011;23498;50.958;3.124;2023-11-21T05:40:14;16.95;;;8.70;;
37655;SDS011;23498;50.958;3.124;2023-11-21T05:42:45;16.90;;;8.20;;
37655;SDS011;23498;50.958;3.124;2023-11-21T05:45:18;19.10;;;8.90;;
37655;SDS011;23498;50.958;3.124;2023-11-21T05:47:46;19.30;;;8.63;;
37655;SDS011;23498;50.958;3.124;2023-11-21T05:50:15;20.10;;;9.48;;
37655;SDS011;23498;50.958;3.124;2023-11-21T05:52:43;24.08;;;9.68;;
37655;SDS011;23498;50.958;3.124;2023-11-21T05:55:10;21.02;;;9.88;;
37655;SDS011;23498;50.958;3.124;2023-11-21T05:57:39;23.63;;;10.55;;
37655;SDS011;23498;50.958;3.124;2023-11-21T06:00:13;22.83;;;10.40;;
37655;SDS011;23498;50.958;3.124;2023-11-21T06:02:51;25.23;;;9.70;;
37655;SDS011;23498;50.958;3.124;2023-11-21T06:05:23;63.70;;;13.57;;
37655;SDS011;23498;50.958;3.124;2023-11-21T06:07:49;22.20;;;10.30;;
37655;SDS011;23498;50.958;3.124;2023-11-21T06:10:19;25.13;;;10.40;;
37655;SDS011;23498;50.958;3.124;2023-11-21T06:12:48;19.20;;;10.45;;
37655;SDS011;23498;50.958;3.124;2023-11-21T06:15:15;21.60;;;10.88;;
37655;SDS011;23498;50.958;3.124;2023-11-21T06:17:46;26.25;;;11.07;;
37655;SDS011;23498;50.958;3.124;2023-11-21T06:20:16;22.30;;;10.10;;
37655;SDS011;23498;50.958;3.124;2023-11-21T06:22:45;22.45;;;11.15;;
37655;SDS011;23498;50.958;3.124;2023-11-21T06:25:13;21.77;;;10.98;;
37655;SDS011;23498;50.958;3.124;2023-11-21T06:27:46;23.90;;;11.27;;
37655;SDS011;23498;50.958;3.124;2023-11-21T06:30:32;24.02;;;12.20;;
37655;SDS011;23498;50.958;3.124;2023-11-21T06:32:59;24.10;;;12.07;;
37655;SDS011;23498;50.958;3.124;2023-11-21T06:35:28;28.77;;;12.55;;
37655;SDS011;23498;50.958;3.124;2023-11-21T06:38:00;28.63;;;13.23;;
37655;SDS011;23498;50.958;3.124;2023-11-21T06:40:28;32.35;;;12.60;;
37655;SDS011;23498;50.958;3.124;2023-11-21T06:42:54;28.45;;;13.32;;
37655;SDS011;23498;50.958;3.124;2023-11-21T06:45:24;28.27;;;12.60;;
37655;SDS011;23498;50.958;3.124;2023-11-21T06:47:54;26.20;;;11.30;;
37655;SDS011;23498;50.958;3.124;2023-11-21T06:50:20;26.58;;;11.88;;
37655;SDS011;23498;50.958;3.124;2023-11-21T06:52:46;23.05;;;11.35;;
37655;SDS011;23498;50.958;3.124;2023-11-21T06:55:13;22.75;;;11.40;;
37655;SDS011;23498;50.958;3.124;2023-11-21T06:57:44;20.90;;;10.95;;
37655;SDS011;23498;50.958;3.124;2023-11-21T07:00:11;25.02;;;13.35;;
37655;SDS011;23498;50.958;3.124;2023-11-21T07:02:39;23.75;;;13.38;;
37655;SDS011;23498;50.958;3.124;2023-11-21T07:05:06;22.63;;;13.05;;
37655;SDS011;23498;50.958;3.124;2023-11-21T07:07:32;20.13;;;11.50;;
37655;SDS011;23498;50.958;3.124;2023-11-21T07:10:00;23.73;;;11.48;;
37655;SDS011;23498;50.958;3.124;2023-11-21T07:12:28;21.77;;;10.10;;
37655;SDS011;23498;50.958;3.124;2023-11-21T07:14:56;22.17;;;9.93;;
37655;SDS011;23498;50.958;3.124;2023-11-21T07:17:24;23.15;;;10.05;;
37655;SDS011;23498;50.958;3.124;2023-11-21T07:19:50;15.80;;;8.45;;
37655;SDS011;23498;50.958;3.124;2023-11-21T07:22:16;16.30;;;8.32;;
37655;SDS011;23498;50.958;3.124;2023-11-21T07:24:50;14.85;;;8.30;;
37655;SDS011;23498;50.958;3.124;2023-11-21T07:27:17;15.57;;;7.80;;
37655;SDS011;23498;50.958;3.124;2023-11-21T07:29:43;13.82;;;7.90;;
37655;SDS011;23498;50.958;3.124;2023-11-21T07:32:09;15.20;;;7.57;;
37655;SDS011;23498;50.958;3.124;2023-11-21T07:34:36;14.65;;;7.10;;
37655;SDS011;23498;50.958;3.124;2023-11-21T07:37:02;12.48;;;7.68;;
37655;SDS011;23498;50.958;3.124;2023-11-21T07:39:28;12.80;;;7.70;;
37655;SDS011;23498;50.958;3.124;2023-11-21T07:41:55;12.73;;;7.07;;
37655;SDS011;23498;50.958;3.124;2023-11-21T07:44:22;15.48;;;8.02;;
37655;SDS011;23498;50.958;3.124;2023-11-21T07:46:49;13.75;;;7.63;;
37655;SDS011;23498;50.958;3.124;2023-11-21T07:49:15;12.48;;;7.00;;
37655;SDS011;23498;50.958;3.124;2023-11-21T07:51:43;13.77;;;7.53;;
37655;SDS011;23498;50.958;3.124;2023-11-21T07:54:09;12.32;;;7.70;;
37655;SDS011;23498;50.958;3.124;2023-11-21T07:56:35;14.73;;;9.05;;
37655;SDS011;23498;50.958;3.124;2023-11-21T07:59:01;17.23;;;9.50;;
37655;SDS011;23498;50.958;3.124;2023-11-21T08:01:27;15.55;;;9.52;;
37655;SDS011;23498;50.958;3.124;2023-11-21T08:03:53;16.80;;;9.00;;
37655;SDS011;23498;50.958;3.124;2023-11-21T08:06:22;18.05;;;9.30;;
37655;SDS011;23498;50.958;3.124;2023-11-21T08:08:49;22.85;;;12.30;;
37655;SDS011;23498;50.958;3.124;2023-11-21T08:11:15;64.80;;;20.10;;
37655;SDS011;23498;50.958;3.124;2023-11-21T08:13:41;32.15;;;17.17;;
37655;SDS011;23498;50.958;3.124;2023-11-21T08:16:11;31.75;;;16.63;;
37655;SDS011;23498;50.958;3.124;2023-11-21T08:18:37;32.35;;;16.08;;
37655;SDS011;23498;50.958;3.124;2023-11-21T08:21:05;23.77;;;12.43;;
37655;SDS011;23498;50.958;3.124;2023-11-21T08:23:31;24.88;;;12.52;;
37655;SDS011;23498;50.958;3.124;2023-11-21T08:25:57;29.67;;;12.60;;
37655;SDS011;23498;50.958;3.124;2023-11-21T08:28:23;20.27;;;11.95;;
37655;SDS011;23498;50.958;3.124;2023-11-21T08:30:51;17.30;;;10.00;;
37655;SDS011;23498;50.958;3.124;2023-11-21T08:33:19;17.20;;;9.95;;
37655;SDS011;23498;50.958;3.124;2023-11-21T08:35:45;18.15;;;9.48;;
37655;SDS011;23498;50.958;3.124;2023-11-21T08:38:11;15.95;;;8.85;;
37655;SDS011;23498;50.958;3.124;2023-11-21T08:40:40;16.25;;;8.52;;
37655;SDS011;23498;50.958;3.124;2023-11-21T08:43:06;17.55;;;8.48;;
37655;SDS011;23498;50.958;3.124;2023-11-21T08:45:33;17.77;;;8.95;;
37655;SDS011;23498;50.958;3.124;2023-11-21T08:48:02;13.77;;;8.10;;
37655;SDS011;23498;50.958;3.124;2023-11-21T08:50:29;15.13;;;7.55;;
37655;SDS011;23498;50.958;3.124;2023-11-21T08:52:55;13.48;;;7.35;;
37655;SDS011;23498;50.958;3.124;2023-11-21T08:55:21;15.77;;;7.25;;
37655;SDS011;23498;50.958;3.124;2023-11-21T08:57:49;13.20;;;6.97;;
37655;SDS011;23498;50.958;3.124;2023-11-21T09:00:15;18.67;;;7.40;;
37655;SDS011;23498;50.958;3.124;2023-11-21T09:02:42;14.60;;;6.95;;
37655;SDS011;23498;50.958;3.124;2023-11-21T09:05:14;14.23;;;6.78;;
37655;SDS011;23498;50.958;3.124;2023-11-21T09:07:52;11.15;;;5.55;;
37655;SDS011;23498;50.958;3.124;2023-11-21T09:10:18;16.08;;;6.65;;
37655;SDS011;23498;50.958;3.124;2023-11-21T09:12:45;16.38;;;7.07;;
37655;SDS011;23498;50.958;3.124;2023-11-21T09:15:11;13.88;;;6.72;;
37655;SDS011;23498;50.958;3.124;2023-11-21T09:17:38;13.73;;;6.97;;
37655;SDS011;23498;50.958;3.124;2023-11-21T09:20:05;12.75;;;5.68;;
37655;SDS011;23498;50.958;3.124;2023-11-21T09:22:35;14.45;;;5.32;;
37655;SDS011;23498;50.958;3.124;2023-11-21T09:25:03;13.55;;;6.30;;
37655;SDS011;23498;50.958;3.124;2023-11-21T09:27:30;12.02;;;6.32;;
37655;SDS011;23498;50.958;3.124;2023-11-21T09:29:56;10.75;;;5.47;;
37655;SDS011;23498;50.958;3.124;2023-11-21T09:32:23;11.60;;;5.43;;
37655;SDS011;23498;50.958;3.124;2023-11-21T09:34:51;11.05;;;5.30;;
37655;SDS011;23498;50.958;3.124;2023-11-21T09:37:18;12.02;;;5.13;;
37655;SDS011;23498;50.958;3.124;2023-11-21T09:39:45;14.05;;;6.13;;
37655;SDS011;23498;50.958;3.124;2023-11-21T09:42:19;15.55;;;5.72;;
37655;SDS011;23498;50.958;3.124;2023-11-21T09:47:32;13.60;;;4.78;;
37655;SDS011;23498;50.958;3.124;2023-11-21T09:50:04;8.65;;;3.67;;
37655;SDS011;23498;50.958;3.124;2023-11-21T09:52:44;10.60;;;3.63;;
37655;SDS011;23498;50.958;3.124;2023-11-21T09:55:15;8.90;;;2.72;;
37655;SDS011;23498;50.958;3.124;2023-11-21T09:57:44;9.15;;;3.03;;
37655;SDS011;23498;50.958;3.124;2023-11-21T10:00:13;8.43;;;2.45;;
37655;SDS011;23498;50.958;3.124;2023-11-21T10:02:44;6.47;;;2.33;;
37655;SDS011;23498;50.958;3.124;2023-11-21T10:05:11;8.32;;;2.50;;
37655;SDS011;23498;50.958;3.124;2023-11-21T10:07:44;9.10;;;2.60;;
37655;SDS011;23498;50.958;3.124;2023-11-21T10:10:10;5.45;;;2.17;;
37655;SDS011;23498;50.958;3.124;2023-11-21T10:12:36;6.40;;;2.33;;
37655;SDS011;23498;50.958;3.124;2023-11-21T10:15:07;5.68;;;2.25;;
37655;SDS011;23498;50.958;3.124;2023-11-21T10:17:51;7.97;;;2.28;;
37655;SDS011;23498;50.958;3.124;2023-11-21T10:44:07;15.55;;;4.85;;
37655;SDS011;23498;50.958;3.124;2023-11-21T10:46:57;8.55;;;4.75;;
37655;SDS011;23498;50.958;3.124;2023-11-21T11:05:03;11.85;;;5.10;;
37655;SDS011;23498;50.958;3.124;2023-11-21T11:33:31;10.07;;;4.20;;
37655;SDS011;23498;50.958;3.124;2023-11-21T11:38:46;9.38;;;3.47;;
37655;SDS011;23498;50.958;3.124;2023-11-21T11:41:19;11.23;;;3.40;;
37655;SDS011;23498;50.958;3.124;2023-11-21T11:43:49;8.02;;;4.22;;
37655;SDS011;23498;50.958;3.124;2023-11-21T11:46:15;15.20;;;3.95;;
37655;SDS011;23498;50.958;3.124;2023-11-21T11:48:41;11.35;;;2.83;;
37655;SDS011;23498;50.958;3.124;2023-11-21T11:56:33;15.18;;;3.50;;
37655;SDS011;23498;50.958;3.124;2023-11-21T11:59:04;13.45;;;3.20;;
37655;SDS011;23498;50.958;3.124;2023-11-21T12:01:34;11.25;;;3.20;;
37655;SDS011;23498;50.958;3.124;2023-11-21T12:06:57;9.75;;;3.22;;
37655;SDS011;23498;50.958;3.124;2023-11-21T12:09:25;10.70;;;3.30;;
37655;SDS011;23498;50.958;3.124;2023-11-21T12:11:53;10.40;;;2.92;;
37655;SDS011;23498;50.958;3.124;2023-11-21T12:14:21;10.45;;;3.28;;
37655;SDS011;23498;50.958;3.124;2023-11-21T12:16:48;24.10;;;5.45;;
37655;SDS011;23498;50.958;3.124;2023-11-21T12:19:14;10.32;;;2.70;;
37655;SDS011;23498;50.958;3.124;2023-11-21T12:21:40;8.65;;;3.42;;
37655;SDS011;23498;50.958;3.124;2023-11-21T12:24:07;10.00;;;2.65;;
37655;SDS011;23498;50.958;3.124;2023-11-21T12:26:34;11.05;;;2.80;;
37655;SDS011;23498;50.958;3.124;2023-11-21T12:29:01;11.45;;;2.97;;
37655;SDS011;23498;50.958;3.124;2023-11-21T12:31:29;8.18;;;2.78;;
37655;SDS011;23498;50.958;3.124;2023-11-21T12:33:57;8.13;;;2.42;;
37655;SDS011;23498;50.958;3.124;2023-11-21T12:36:23;15.52;;;3.20;;
37655;SDS011;23498;50.958;3.124;2023-11-21T12:38:52;10.48;;;2.63;;
37655;SDS011;23498;50.958;3.124;2023-11-21T12:41:18;9.43;;;2.22;;
37655;SDS011;23498;50.958;3.124;2023-11-21T12:43:44;11.25;;;2.47;;
37655;SDS011;23498;50.958;3.124;2023-11-21T12:46:11;10.82;;;2.40;;
37655;SDS011;23498;50.958;3.124;2023-11-21T12:48:38;8.50;;;1.92;;
37655;SDS011;23498;50.958;3.124;2023-11-21T12:51:07;8.95;;;2.60;;
37655;SDS011;23498;50.958;3.124;2023-11-21T12:53:34;14.32;;;3.20;;
37655;SDS011;23498;50.958;3.124;2023-11-21T12:56:06;7.15;;;2.08;;
37655;SDS011;23498;50.958;3.124;2023-11-21T12:58:34;4.35;;;1.50;;
37655;SDS011;23498;50.958;3.124;2023-11-21T13:01:01;5.72;;;1.90;;
37655;SDS011;23498;50.958;3.124;2023-11-21T13:03:29;6.57;;;1.58;;
37655;SDS011;23498;50.958;3.124;2023-11-21T13:05:56;7.82;;;2.03;;
37655;SDS011;23498;50.958;3.124;2023-11-21T13:08:24;6.88;;;1.60;;
37655;SDS011;23498;50.958;3.124;2023-11-21T13:10:51;6.72;;;1.52;;
37655;SDS011;23498;50.958;3.124;2023-11-21T13:13:19;5.50;;;1.73;;
37655;SDS011;23498;50.958;3.124;2023-11-21T13:27:02;6.43;;;2.10;;
37655;SDS011;23498;50.958;3.124;2023-11-21T13:35:33;6.10;;;1.58;;
37655;SDS011;23498;50.958;3.124;2023-11-21T13:41:33;9.10;;;2.30;;
37655;SDS011;23498;50.958;3.124;2023-11-21T13:49:41;13.90;;;2.67;;
37655;SDS011;23498;50.958;3.124;2023-11-21T13:59:57;3.10;;;1.23;;
37655;SDS011;23498;50.958;3.124;2023-11-21T14:05:26;4.43;;;1.50;;
37655;SDS011;23498;50.958;3.124;2023-11-21T14:07:56;3.95;;;1.48;;
37655;SDS011;23498;50.958;3.124;2023-11-21T14:10:35;5.70;;;1.92;;
37655;SDS011;23498;50.958;3.124;2023-11-21T14:13:13;5.30;;;1.50;;
37655;SDS011;23498;50.958;3.124;2023-11-21T14:15:57;6.53;;;1.80;;
37655;SDS011;23498;50.958;3.124;2023-11-21T14:27:33;3.63;;;1.27;;
37655;SDS011;23498;50.958;3.124;2023-11-21T14:30:10;3.85;;;1.55;;
37655;SDS011;23498;50.958;3.124;2023-11-21T14:32:46;3.25;;;1.23;;
37655;SDS011;23498;50.958;3.124;2023-11-21T14:35:12;3.55;;;1.40;;
37655;SDS011;23498;50.958;3.124;2023-11-21T14:37:41;4.82;;;1.70;;
37655;SDS011;23498;50.958;3.124;2023-11-21T14:40:08;3.38;;;1.48;;
37655;SDS011;23498;50.958;3.124;2023-11-21T14:45:50;3.50;;;1.40;;
37655;SDS011;23498;50.958;3.124;2023-11-21T14:51:21;3.63;;;1.20;;
37655;SDS011;23498;50.958;3.124;2023-11-21T14:53:59;3.00;;;1.00;;
37655;SDS011;23498;50.958;3.124;2023-11-21T14:56:37;3.78;;;1.30;;
37655;SDS011;23498;50.958;3.124;2023-11-21T14:59:13;5.75;;;1.50;;
37655;SDS011;23498;50.958;3.124;2023-11-21T15:01:55;6.25;;;1.40;;
37655;SDS011;23498;50.958;3.124;2023-11-21T15:04:34;5.13;;;1.48;;
37655;SDS011;23498;50.958;3.124;2023-11-21T15:07:02;3.70;;;1.23;;
37655;SDS011;23498;50.958;3.124;2023-11-21T15:09:29;6.63;;;1.70;;
37655;SDS011;23498;50.958;3.124;2023-11-21T15:31:26;6.00;;;2.42;;
37655;SDS011;23498;50.958;3.124;2023-11-21T15:33:52;24.80;;;13.60;;
37655;SDS011;23498;50.958;3.124;2023-11-21T15:36:30;15.82;;;7.15;;
37655;SDS011;23498;50.958;3.124;2023-11-21T15:39:05;14.52;;;6.93;;
37655;SDS011;23498;50.958;3.124;2023-11-21T15:44:13;15.63;;;8.68;;
37655;SDS011;23498;50.958;3.124;2023-11-21T15:50:04;12.65;;;5.18;;
37655;SDS011;23498;50.958;3.124;2023-11-21T15:52:59;13.40;;;4.25;;
37655;SDS011;23498;50.958;3.124;2023-11-21T15:58:41;7.95;;;3.83;;
37655;SDS011;23498;50.958;3.124;2023-11-21T16:12:43;6.40;;;2.80;;
37655;SDS011;23498;50.958;3.124;2023-11-21T16:15:26;7.07;;;2.50;;
37655;SDS011;23498;50.958;3.124;2023-11-21T16:17:55;7.03;;;2.65;;
37655;SDS011;23498;50.958;3.124;2023-11-21T16:20:24;8.05;;;3.63;;
37655;SDS011;23498;50.958;3.124;2023-11-21T16:22:54;8.30;;;3.50;;
37655;SDS011;23498;50.958;3.124;2023-11-21T16:25:27;16.00;;;9.68;;
37655;SDS011;23498;50.958;3.124;2023-11-21T16:28:10;17.63;;;12.63;;
37655;SDS011;23498;50.958;3.124;2023-11-21T16:55:05;6.45;;;3.20;;
37655;SDS011;23498;50.958;3.124;2023-11-21T16:57:35;6.35;;;3.10;;
37655;SDS011;23498;50.958;3.124;2023-11-21T17:00:03;11.23;;;4.10;;
37655;SDS011;23498;50.958;3.124;2023-11-21T17:02:36;13.52;;;8.75;;
37655;SDS011;23498;50.958;3.124;2023-11-21T17:05:22;9.57;;;7.60;;
37655;SDS011;23498;50.958;3.124;2023-11-21T17:19:26;26.52;;;18.48;;
37655;SDS011;23498;50.958;3.124;2023-11-21T17:25:10;12.73;;;5.68;;
37655;SDS011;23498;50.958;3.124;2023-11-21T17:27:43;12.07;;;4.80;;
37655;SDS011;23498;50.958;3.124;2023-11-21T17:30:10;11.25;;;5.70;;
37655;SDS011;23498;50.958;3.124;2023-11-21T17:53:24;11.75;;;6.10;;
37655;SDS011;23498;50.958;3.124;2023-11-21T17:55:51;10.60;;;5.93;;
37655;SDS011;23498;50.958;3.124;2023-11-21T17:58:20;9.55;;;5.75;;
37655;SDS011;23498;50.958;3.124;2023-11-21T18:00:46;9.63;;;5.80;;
37655;SDS011;23498;50.958;3.124;2023-11-21T18:03:14;9.10;;;5.30;;
37655;SDS011;23498;50.958;3.124;2023-11-21T18:05:42;14.40;;;6.95;;
37655;SDS011;23498;50.958;3.124;2023-11-21T18:08:09;13.23;;;7.57;;
37655;SDS011;23498;50.958;3.124;2023-11-21T18:10:35;11.23;;;6.38;;
37655;SDS011;23498;50.958;3.124;2023-11-21T18:13:04;12.82;;;5.93;;
37655;SDS011;23498;50.958;3.124;2023-11-21T18:15:37;15.40;;;7.32;;
37655;SDS011;23498;50.958;3.124;2023-11-21T18:18:03;11.20;;;7.93;;
37655;SDS011;23498;50.958;3.124;2023-11-21T18:20:33;12.88;;;7.72;;
37655;SDS011;23498;50.958;3.124;2023-11-21T18:26:18;14.60;;;7.40;;
37655;SDS011;23498;50.958;3.124;2023-11-21T18:39:19;18.50;;;11.45;;
37655;SDS011;23498;50.958;3.124;2023-11-21T18:41:53;17.30;;;11.73;;
37655;SDS011;23498;50.958;3.124;2023-11-21T21:47:06;18.65;;;11.02;;
37655;SDS011;23498;50.958;3.124;2023-11-21T21:49:52;18.63;;;10.93;;
37655;SDS011;23498;50.958;3.124;2023-11-21T21:55:43;20.65;;;12.23;;
37655;SDS011;23498;50.958;3.124;2023-11-21T21:58:11;20.35;;;11.95;;
37655;SDS011;23498;50.958;3.124;2023-11-21T22:00:38;19.50;;;11.73;;